الصفحة الرئيسية
METAR-TAF:

METAR-TAF

مطار :

مطار ويلينغتون الدولي

ويلينغتون, نيوزيلندا

دائرة عرض: 41-20S, خط طول: 174-48E, ارتفاع: 12 متر

مراقبة الطقس الحالي

تاريخ ووقت الإصدار 23 دقيقة قبل الساعة 00:00UTC
ريح 21 عقدة من الجنوب
درجة الحرارة 10°درجة مئوية
الرطوبة 76%
ضغط 1010 hPa
الرؤية 10 كم أو أكثر

METAR: NZWN 180000Z AUTO 19021KT 9999 FEW022/// BKN048/// 10/06 Q1010 NOSIG

زمن: 12:23 (00:23 UTC)

توقعات

تاريخ ووقت الإصدار 1ساعة و 14 دقيقة قبل الساعة 23:09UTC
التوقعات صالحة من18 الساعة 00 UTC إلى 19 الساعة 00 UTC
ريح 25 عقدة من الجنوب/الجنوب الغربي تتزايد حتى 35 عقدة
الرؤية 10 كم أو أكثر
غيوم مفككة على ارتفاع 3000 قدم
من 18 الساعة 0400 UTC
ريح 10 عقدة من الجنوب/الجنوب الغربي
الرؤية 10 كم أو أكثر
غيوم قليلة على ارتفاع 3000 قدم
أصبح
من 18 الساعة 14 UTC إلى 18 الساعة 16 UTC
ريح 5 عقدة من الشمال/الشمال الغربي

TAF: NZWN 172309Z 1800/1900 20025G35KT 9999 BKN030 FM180400 20010KT 9999 FEW030 BECMG 1814/1816 34005KT

أرصاد الطقس والتوقعات من أكثر من 4000 مطار (تقارير الطقس للمطار METAR والتنبؤ بالطقس بالمطارTAF).

المحطات المتاحة هي النقط الصفراء والحمراء على الخريطة.

حرك المؤشر فوق النقطة لمعرفة اسم المحطة.

ثم انقر لمعرفة أرصاد وتوقعات الطقس.

لتغيير الخارطة: اضغط على الأزرار الخضراء مع رمز الصليب الأسود للتكبير. على الزر الأخضر مع شرطة للتصغير، أو على الأسهم الخضراء للخرائط المجاورة.


METAR-TAF: